sensor_id;sensor_type;location;lat;lon;timestamp;P1;durP1;ratioP1;P2;durP2;ratioP2
53052;SDS011;38934;52.690;6.184;2023-04-25T00:01:39;17.88;;;5.32;;
53052;SDS011;38934;52.690;6.184;2023-04-25T00:04:06;16.60;;;5.13;;
53052;SDS011;38934;52.690;6.184;2023-04-25T00:06:34;15.45;;;5.40;;
53052;SDS011;38934;52.690;6.184;2023-04-25T00:09:02;15.88;;;5.15;;
53052;SDS011;38934;52.690;6.184;2023-04-25T00:11:30;19.55;;;5.35;;
53052;SDS011;38934;52.690;6.184;2023-04-25T00:13:56;15.88;;;5.07;;
53052;SDS011;38934;52.690;6.184;2023-04-25T00:16:23;12.68;;;5.28;;
53052;SDS011;38934;52.690;6.184;2023-04-25T00:18:51;15.57;;;4.97;;
53052;SDS011;38934;52.690;6.184;2023-04-25T00:21:19;17.33;;;5.10;;
53052;SDS011;38934;52.690;6.184;2023-04-25T00:23:47;11.52;;;4.65;;
53052;SDS011;38934;52.690;6.184;2023-04-25T00:26:12;21.00;;;4.82;;
53052;SDS011;38934;52.690;6.184;2023-04-25T00:28:39;12.77;;;4.78;;
53052;SDS011;38934;52.690;6.184;2023-04-25T00:31:07;16.85;;;5.55;;
53052;SDS011;38934;52.690;6.184;2023-04-25T00:36:22;11.05;;;4.32;;
53052;SDS011;38934;52.690;6.184;2023-04-25T00:38:54;13.43;;;5.00;;
53052;SDS011;38934;52.690;6.184;2023-04-25T00:41:36;15.45;;;4.88;;
53052;SDS011;38934;52.690;6.184;2023-04-25T00:44:08;16.48;;;4.85;;
53052;SDS011;38934;52.690;6.184;2023-04-25T00:46:38;16.52;;;6.05;;
53052;SDS011;38934;52.690;6.184;2023-04-25T00:49:04;18.90;;;5.38;;
53052;SDS011;38934;52.690;6.184;2023-04-25T00:51:31;17.27;;;4.82;;
53052;SDS011;38934;52.690;6.184;2023-04-25T00:53:59;18.52;;;4.88;;
53052;SDS011;38934;52.690;6.184;2023-04-25T00:56:26;15.70;;;4.57;;
53052;SDS011;38934;52.690;6.184;2023-04-25T00:58:53;17.63;;;4.63;;
53052;SDS011;38934;52.690;6.184;2023-04-25T01:01:22;20.33;;;5.15;;
53052;SDS011;38934;52.690;6.184;2023-04-25T01:03:49;15.20;;;4.80;;
53052;SDS011;38934;52.690;6.184;2023-04-25T01:06:15;17.33;;;4.82;;
53052;SDS011;38934;52.690;6.184;2023-04-25T01:08:41;18.10;;;4.57;;
53052;SDS011;38934;52.690;6.184;2023-04-25T01:11:08;20.27;;;5.20;;
53052;SDS011;38934;52.690;6.184;2023-04-25T01:13:34;16.33;;;5.35;;
53052;SDS011;38934;52.690;6.184;2023-04-25T01:16:01;22.50;;;6.07;;
53052;SDS011;38934;52.690;6.184;2023-04-25T01:18:34;16.98;;;5.20;;
53052;SDS011;38934;52.690;6.184;2023-04-25T01:21:09;15.23;;;4.57;;
53052;SDS011;38934;52.690;6.184;2023-04-25T01:23:37;15.13;;;4.78;;
53052;SDS011;38934;52.690;6.184;2023-04-25T01:26:04;14.70;;;5.10;;
53052;SDS011;38934;52.690;6.184;2023-04-25T01:28:33;14.80;;;5.13;;
53052;SDS011;38934;52.690;6.184;2023-04-25T01:30:59;13.63;;;5.22;;
53052;SDS011;38934;52.690;6.184;2023-04-25T01:33:26;13.60;;;4.85;;
53052;SDS011;38934;52.690;6.184;2023-04-25T01:35:52;13.00;;;4.72;;
53052;SDS011;38934;52.690;6.184;2023-04-25T01:38:17;13.85;;;4.68;;
53052;SDS011;38934;52.690;6.184;2023-04-25T01:40:44;14.15;;;4.90;;
53052;SDS011;38934;52.690;6.184;2023-04-25T01:43:11;17.73;;;6.20;;
53052;SDS011;38934;52.690;6.184;2023-04-25T01:45:43;15.70;;;4.68;;
53052;SDS011;38934;52.690;6.184;2023-04-25T01:48:09;25.30;;;5.63;;
53052;SDS011;38934;52.690;6.184;2023-04-25T01:50:37;17.00;;;4.97;;
53052;SDS011;38934;52.690;6.184;2023-04-25T01:53:06;19.73;;;5.07;;
53052;SDS011;38934;52.690;6.184;2023-04-25T01:55:37;12.88;;;4.70;;
53052;SDS011;38934;52.690;6.184;2023-04-25T01:58:06;18.15;;;5.15;;
53052;SDS011;38934;52.690;6.184;2023-04-25T02:00:35;20.58;;;4.95;;
53052;SDS011;38934;52.690;6.184;2023-04-25T02:03:05;13.48;;;4.45;;
53052;SDS011;38934;52.690;6.184;2023-04-25T02:05:37;15.73;;;4.50;;
53052;SDS011;38934;52.690;6.184;2023-04-25T02:10:34;20.00;;;4.35;;
53052;SDS011;38934;52.690;6.184;2023-04-25T02:13:01;13.43;;;4.70;;
53052;SDS011;38934;52.690;6.184;2023-04-25T02:15:30;12.40;;;4.13;;
53052;SDS011;38934;52.690;6.184;2023-04-25T02:17:58;16.42;;;4.50;;
53052;SDS011;38934;52.690;6.184;2023-04-25T02:20:25;14.95;;;4.10;;
53052;SDS011;38934;52.690;6.184;2023-04-25T02:22:52;23.40;;;4.70;;
53052;SDS011;38934;52.690;6.184;2023-04-25T02:25:18;13.55;;;4.15;;
53052;SDS011;38934;52.690;6.184;2023-04-25T02:27:45;10.40;;;4.20;;
53052;SDS011;38934;52.690;6.184;2023-04-25T02:30:14;11.82;;;4.10;;
53052;SDS011;38934;52.690;6.184;2023-04-25T02:32:40;13.10;;;4.07;;
53052;SDS011;38934;52.690;6.184;2023-04-25T02:35:06;15.40;;;4.63;;
53052;SDS011;38934;52.690;6.184;2023-04-25T02:37:33;14.02;;;4.50;;
53052;SDS011;38934;52.690;6.184;2023-04-25T02:40:03;7.38;;;3.67;;
53052;SDS011;38934;52.690;6.184;2023-04-25T02:42:29;12.13;;;3.65;;
53052;SDS011;38934;52.690;6.184;2023-04-25T02:44:57;13.85;;;4.15;;
53052;SDS011;38934;52.690;6.184;2023-04-25T02:47:23;15.65;;;3.60;;
53052;SDS011;38934;52.690;6.184;2023-04-25T02:49:49;10.82;;;3.78;;
53052;SDS011;38934;52.690;6.184;2023-04-25T02:52:17;10.82;;;3.33;;
53052;SDS011;38934;52.690;6.184;2023-04-25T02:54:44;13.45;;;4.25;;
53052;SDS011;38934;52.690;6.184;2023-04-25T02:57:10;11.45;;;3.33;;
53052;SDS011;38934;52.690;6.184;2023-04-25T02:59:35;12.30;;;3.53;;
53052;SDS011;38934;52.690;6.184;2023-04-25T03:02:01;14.75;;;3.40;;
53052;SDS011;38934;52.690;6.184;2023-04-25T03:04:28;15.98;;;3.88;;
53052;SDS011;38934;52.690;6.184;2023-04-25T03:06:54;13.43;;;3.25;;
53052;SDS011;38934;52.690;6.184;2023-04-25T03:09:20;13.38;;;3.15;;
53052;SDS011;38934;52.690;6.184;2023-04-25T03:11:48;15.57;;;4.10;;
53052;SDS011;38934;52.690;6.184;2023-04-25T03:14:14;12.85;;;4.13;;
53052;SDS011;38934;52.690;6.184;2023-04-25T03:16:42;12.90;;;3.45;;
53052;SDS011;38934;52.690;6.184;2023-04-25T03:19:08;17.50;;;4.93;;
53052;SDS011;38934;52.690;6.184;2023-04-25T03:21:34;12.20;;;4.38;;
53052;SDS011;38934;52.690;6.184;2023-04-25T03:24:01;14.73;;;3.90;;
53052;SDS011;38934;52.690;6.184;2023-04-25T03:26:28;9.05;;;3.53;;
53052;SDS011;38934;52.690;6.184;2023-04-25T03:28:54;7.10;;;2.88;;
53052;SDS011;38934;52.690;6.184;2023-04-25T03:31:21;9.95;;;3.22;;
53052;SDS011;38934;52.690;6.184;2023-04-25T03:33:48;8.98;;;3.40;;
53052;SDS011;38934;52.690;6.184;2023-04-25T03:36:15;13.52;;;3.80;;
53052;SDS011;38934;52.690;6.184;2023-04-25T03:38:41;11.55;;;3.55;;
53052;SDS011;38934;52.690;6.184;2023-04-25T03:41:08;15.90;;;3.40;;
53052;SDS011;38934;52.690;6.184;2023-04-25T03:43:35;11.70;;;2.90;;
53052;SDS011;38934;52.690;6.184;2023-04-25T03:46:01;7.80;;;3.03;;
53052;SDS011;38934;52.690;6.184;2023-04-25T03:48:27;9.65;;;2.47;;
53052;SDS011;38934;52.690;6.184;2023-04-25T03:50:53;9.75;;;3.58;;
53052;SDS011;38934;52.690;6.184;2023-04-25T03:53:19;13.02;;;3.75;;
53052;SDS011;38934;52.690;6.184;2023-04-25T03:55:47;13.63;;;4.72;;
53052;SDS011;38934;52.690;6.184;2023-04-25T03:58:23;11.70;;;4.47;;
53052;SDS011;38934;52.690;6.184;2023-04-25T04:00:49;10.13;;;3.65;;
53052;SDS011;38934;52.690;6.184;2023-04-25T04:03:17;9.45;;;3.40;;
53052;SDS011;38934;52.690;6.184;2023-04-25T04:05:43;7.60;;;3.92;;
53052;SDS011;38934;52.690;6.184;2023-04-25T04:08:12;10.60;;;3.10;;
53052;SDS011;38934;52.690;6.184;2023-04-25T04:10:39;10.98;;;3.60;;
53052;SDS011;38934;52.690;6.184;2023-04-25T04:13:04;8.68;;;2.78;;
53052;SDS011;38934;52.690;6.184;2023-04-25T04:15:38;7.15;;;2.58;;
53052;SDS011;38934;52.690;6.184;2023-04-25T04:18:06;11.45;;;2.80;;
53052;SDS011;38934;52.690;6.184;2023-04-25T04:20:31;9.73;;;2.95;;
53052;SDS011;38934;52.690;6.184;2023-04-25T04:22:57;8.65;;;2.75;;
53052;SDS011;38934;52.690;6.184;2023-04-25T04:25:23;9.48;;;2.83;;
53052;SDS011;38934;52.690;6.184;2023-04-25T04:27:49;11.57;;;3.10;;
53052;SDS011;38934;52.690;6.184;2023-04-25T04:30:22;8.10;;;2.80;;
53052;SDS011;38934;52.690;6.184;2023-04-25T04:32:56;5.65;;;2.53;;
53052;SDS011;38934;52.690;6.184;2023-04-25T04:35:22;10.98;;;2.70;;
53052;SDS011;38934;52.690;6.184;2023-04-25T04:37:49;10.10;;;2.75;;
53052;SDS011;38934;52.690;6.184;2023-04-25T04:40:29;5.55;;;2.60;;
53052;SDS011;38934;52.690;6.184;2023-04-25T04:42:56;7.88;;;2.38;;
53052;SDS011;38934;52.690;6.184;2023-04-25T04:45:23;6.90;;;2.63;;
53052;SDS011;38934;52.690;6.184;2023-04-25T04:47:55;11.25;;;2.60;;
53052;SDS011;38934;52.690;6.184;2023-04-25T04:50:20;8.90;;;2.72;;
53052;SDS011;38934;52.690;6.184;2023-04-25T04:52:46;9.27;;;2.33;;
53052;SDS011;38934;52.690;6.184;2023-04-25T04:55:12;5.28;;;2.72;;
53052;SDS011;38934;52.690;6.184;2023-04-25T05:02:37;9.77;;;2.55;;
53052;SDS011;38934;52.690;6.184;2023-04-25T05:05:04;7.80;;;2.72;;
53052;SDS011;38934;52.690;6.184;2023-04-25T05:07:30;5.80;;;2.42;;
53052;SDS011;38934;52.690;6.184;2023-04-25T05:09:56;6.72;;;2.28;;
53052;SDS011;38934;52.690;6.184;2023-04-25T05:12:24;9.90;;;2.92;;
53052;SDS011;38934;52.690;6.184;2023-04-25T05:14:50;9.15;;;2.63;;
53052;SDS011;38934;52.690;6.184;2023-04-25T05:17:22;6.22;;;2.53;;
53052;SDS011;38934;52.690;6.184;2023-04-25T05:19:47;10.68;;;2.80;;
53052;SDS011;38934;52.690;6.184;2023-04-25T05:22:13;8.88;;;2.75;;
53052;SDS011;38934;52.690;6.184;2023-04-25T05:24:39;7.85;;;2.35;;
53052;SDS011;38934;52.690;6.184;2023-04-25T05:29:38;6.60;;;2.85;;
53052;SDS011;38934;52.690;6.184;2023-04-25T05:32:05;9.80;;;2.65;;
53052;SDS011;38934;52.690;6.184;2023-04-25T05:34:33;11.05;;;2.85;;
53052;SDS011;38934;52.690;6.184;2023-04-25T05:37:00;10.13;;;3.13;;
53052;SDS011;38934;52.690;6.184;2023-04-25T05:39:26;11.68;;;3.00;;
53052;SDS011;38934;52.690;6.184;2023-04-25T05:41:52;10.52;;;2.78;;
53052;SDS011;38934;52.690;6.184;2023-04-25T05:44:18;7.82;;;3.00;;
53052;SDS011;38934;52.690;6.184;2023-04-25T05:46:44;6.85;;;3.05;;
53052;SDS011;38934;52.690;6.184;2023-04-25T05:49:10;11.57;;;2.78;;
53052;SDS011;38934;52.690;6.184;2023-04-25T05:51:35;8.20;;;2.78;;
53052;SDS011;38934;52.690;6.184;2023-04-25T05:54:01;10.25;;;3.13;;
53052;SDS011;38934;52.690;6.184;2023-04-25T05:56:27;10.20;;;3.60;;
53052;SDS011;38934;52.690;6.184;2023-04-25T05:58:53;10.95;;;3.25;;
53052;SDS011;38934;52.690;6.184;2023-04-25T06:01:19;8.05;;;2.97;;
53052;SDS011;38934;52.690;6.184;2023-04-25T06:03:45;11.85;;;2.78;;
53052;SDS011;38934;52.690;6.184;2023-04-25T06:06:11;8.93;;;2.50;;
53052;SDS011;38934;52.690;6.184;2023-04-25T06:08:37;5.38;;;2.38;;
53052;SDS011;38934;52.690;6.184;2023-04-25T06:11:03;10.57;;;2.53;;
53052;SDS011;38934;52.690;6.184;2023-04-25T06:13:30;8.95;;;2.58;;
53052;SDS011;38934;52.690;6.184;2023-04-25T06:15:56;7.57;;;2.20;;
53052;SDS011;38934;52.690;6.184;2023-04-25T06:18:23;7.03;;;2.30;;
53052;SDS011;38934;52.690;6.184;2023-04-25T06:20:49;4.47;;;2.03;;
53052;SDS011;38934;52.690;6.184;2023-04-25T06:23:15;7.93;;;2.30;;
53052;SDS011;38934;52.690;6.184;2023-04-25T06:25:41;10.25;;;3.08;;
53052;SDS011;38934;52.690;6.184;2023-04-25T06:28:06;5.90;;;2.95;;
53052;SDS011;38934;52.690;6.184;2023-04-25T06:30:32;9.35;;;2.80;;
53052;SDS011;38934;52.690;6.184;2023-04-25T06:32:58;8.95;;;3.13;;
53052;SDS011;38934;52.690;6.184;2023-04-25T06:35:25;10.25;;;3.30;;
53052;SDS011;38934;52.690;6.184;2023-04-25T06:37:50;13.43;;;3.53;;
53052;SDS011;38934;52.690;6.184;2023-04-25T06:40:16;8.07;;;2.50;;
53052;SDS011;38934;52.690;6.184;2023-04-25T06:42:42;8.77;;;2.17;;
53052;SDS011;38934;52.690;6.184;2023-04-25T06:45:08;7.45;;;2.58;;
53052;SDS011;38934;52.690;6.184;2023-04-25T06:47:34;11.60;;;2.90;;
53052;SDS011;38934;52.690;6.184;2023-04-25T06:50:00;8.98;;;2.65;;
53052;SDS011;38934;52.690;6.184;2023-04-25T06:52:29;13.57;;;3.72;;
53052;SDS011;38934;52.690;6.184;2023-04-25T06:54:55;11.48;;;2.90;;
53052;SDS011;38934;52.690;6.184;2023-04-25T06:57:20;7.28;;;2.58;;
53052;SDS011;38934;52.690;6.184;2023-04-25T06:59:46;5.55;;;2.55;;
53052;SDS011;38934;52.690;6.184;2023-04-25T07:02:12;9.07;;;2.67;;
53052;SDS011;38934;52.690;6.184;2023-04-25T07:04:37;8.18;;;2.50;;
53052;SDS011;38934;52.690;6.184;2023-04-25T07:07:03;9.90;;;2.30;;
53052;SDS011;38934;52.690;6.184;2023-04-25T07:09:29;7.03;;;2.30;;
53052;SDS011;38934;52.690;6.184;2023-04-25T07:11:55;7.60;;;2.70;;
53052;SDS011;38934;52.690;6.184;2023-04-25T07:14:21;10.68;;;3.17;;
53052;SDS011;38934;52.690;6.184;2023-04-25T07:16:47;10.73;;;3.13;;
53052;SDS011;38934;52.690;6.184;2023-04-25T07:19:13;12.50;;;4.30;;
53052;SDS011;38934;52.690;6.184;2023-04-25T07:21:39;12.00;;;3.28;;
53052;SDS011;38934;52.690;6.184;2023-04-25T07:24:05;15.50;;;3.53;;
53052;SDS011;38934;52.690;6.184;2023-04-25T07:26:31;11.95;;;3.40;;
53052;SDS011;38934;52.690;6.184;2023-04-25T07:28:57;9.43;;;3.30;;
53052;SDS011;38934;52.690;6.184;2023-04-25T07:31:22;7.15;;;2.40;;
53052;SDS011;38934;52.690;6.184;2023-04-25T07:33:48;5.68;;;2.40;;
53052;SDS011;38934;52.690;6.184;2023-04-25T07:36:18;8.35;;;2.72;;
53052;SDS011;38934;52.690;6.184;2023-04-25T07:38:43;10.95;;;2.80;;
53052;SDS011;38934;52.690;6.184;2023-04-25T07:41:09;8.18;;;2.97;;
53052;SDS011;38934;52.690;6.184;2023-04-25T07:43:35;12.73;;;3.08;;
53052;SDS011;38934;52.690;6.184;2023-04-25T07:46:01;13.30;;;3.05;;
53052;SDS011;38934;52.690;6.184;2023-04-25T07:48:27;9.38;;;3.30;;
53052;SDS011;38934;52.690;6.184;2023-04-25T07:50:56;10.70;;;2.78;;
53052;SDS011;38934;52.690;6.184;2023-04-25T07:53:23;8.05;;;2.67;;
53052;SDS011;38934;52.690;6.184;2023-04-25T07:55:48;9.45;;;2.10;;
53052;SDS011;38934;52.690;6.184;2023-04-25T07:58:15;8.00;;;2.50;;
53052;SDS011;38934;52.690;6.184;2023-04-25T08:00:46;7.40;;;2.00;;
53052;SDS011;38934;52.690;6.184;2023-04-25T08:03:12;7.03;;;1.90;;
53052;SDS011;38934;52.690;6.184;2023-04-25T08:05:37;10.00;;;2.53;;
53052;SDS011;38934;52.690;6.184;2023-04-25T08:08:06;9.45;;;2.10;;
53052;SDS011;38934;52.690;6.184;2023-04-25T08:10:32;5.05;;;1.98;;
53052;SDS011;38934;52.690;6.184;2023-04-25T08:12:58;3.90;;;1.60;;
53052;SDS011;38934;52.690;6.184;2023-04-25T08:15:25;6.13;;;1.90;;
53052;SDS011;38934;52.690;6.184;2023-04-25T08:17:52;5.60;;;2.00;;
53052;SDS011;38934;52.690;6.184;2023-04-25T08:20:19;5.13;;;1.60;;
53052;SDS011;38934;52.690;6.184;2023-04-25T08:22:45;4.10;;;1.58;;
53052;SDS011;38934;52.690;6.184;2023-04-25T08:25:10;4.93;;;1.63;;
53052;SDS011;38934;52.690;6.184;2023-04-25T08:27:36;2.03;;;1.40;;
53052;SDS011;38934;52.690;6.184;2023-04-25T08:30:03;10.38;;;1.92;;
53052;SDS011;38934;52.690;6.184;2023-04-25T08:32:29;7.75;;;2.00;;
53052;SDS011;38934;52.690;6.184;2023-04-25T08:34:55;4.30;;;2.03;;
53052;SDS011;38934;52.690;6.184;2023-04-25T08:37:21;7.95;;;1.85;;
53052;SDS011;38934;52.690;6.184;2023-04-25T08:39:46;5.43;;;1.90;;
53052;SDS011;38934;52.690;6.184;2023-04-25T08:42:17;5.00;;;1.85;;
53052;SDS011;38934;52.690;6.184;2023-04-25T08:44:45;5.55;;;2.33;;
53052;SDS011;38934;52.690;6.184;2023-04-25T08:47:15;9.10;;;2.00;;
53052;SDS011;38934;52.690;6.184;2023-04-25T08:49:45;8.77;;;2.35;;
53052;SDS011;38934;52.690;6.184;2023-04-25T08:52:11;5.25;;;2.15;;
53052;SDS011;38934;52.690;6.184;2023-04-25T08:54:41;12.90;;;4.72;;
53052;SDS011;38934;52.690;6.184;2023-04-25T08:57:09;8.52;;;3.70;;
53052;SDS011;38934;52.690;6.184;2023-04-25T08:59:35;8.15;;;2.42;;
53052;SDS011;38934;52.690;6.184;2023-04-25T09:02:03;9.18;;;2.28;;
53052;SDS011;38934;52.690;6.184;2023-04-25T09:04:32;6.55;;;2.00;;
53052;SDS011;38934;52.690;6.184;2023-04-25T09:06:58;7.70;;;2.35;;
53052;SDS011;38934;52.690;6.184;2023-04-25T09:09:24;9.93;;;2.50;;
53052;SDS011;38934;52.690;6.184;2023-04-25T09:11:50;7.63;;;1.98;;
53052;SDS011;38934;52.690;6.184;2023-04-25T09:14:19;6.22;;;2.08;;
53052;SDS011;38934;52.690;6.184;2023-04-25T09:19:22;7.00;;;2.17;;
53052;SDS011;38934;52.690;6.184;2023-04-25T09:21:49;5.28;;;1.83;;
53052;SDS011;38934;52.690;6.184;2023-04-25T09:24:15;8.13;;;1.95;;
53052;SDS011;38934;52.690;6.184;2023-04-25T09:26:41;6.95;;;1.92;;
53052;SDS011;38934;52.690;6.184;2023-04-25T09:29:07;6.32;;;2.20;;
53052;SDS011;38934;52.690;6.184;2023-04-25T09:31:33;6.15;;;2.08;;
53052;SDS011;38934;52.690;6.184;2023-04-25T09:33:59;10.57;;;2.33;;
53052;SDS011;38934;52.690;6.184;2023-04-25T09:36:29;4.25;;;1.88;;
53052;SDS011;38934;52.690;6.184;2023-04-25T09:38:55;5.13;;;2.17;;
53052;SDS011;38934;52.690;6.184;2023-04-25T09:41:25;5.10;;;2.20;;
53052;SDS011;38934;52.690;6.184;2023-04-25T09:43:51;5.35;;;1.48;;
53052;SDS011;38934;52.690;6.184;2023-04-25T09:46:19;6.40;;;2.03;;
53052;SDS011;38934;52.690;6.184;2023-04-25T09:48:50;6.65;;;1.80;;
53052;SDS011;38934;52.690;6.184;2023-04-25T09:51:16;8.43;;;2.10;;
53052;SDS011;38934;52.690;6.184;2023-04-25T09:53:42;4.20;;;1.75;;
53052;SDS011;38934;52.690;6.184;2023-04-25T09:56:11;4.93;;;1.40;;
53052;SDS011;38934;52.690;6.184;2023-04-25T09:58:39;4.53;;;1.50;;
53052;SDS011;38934;52.690;6.184;2023-04-25T10:01:07;7.85;;;1.50;;
53052;SDS011;38934;52.690;6.184;2023-04-25T10:03:35;4.70;;;1.70;;
53052;SDS011;38934;52.690;6.184;2023-04-25T10:08:36;6.30;;;1.98;;
53052;SDS011;38934;52.690;6.184;2023-04-25T10:11:03;6.25;;;1.77;;
53052;SDS011;38934;52.690;6.184;2023-04-25T10:13:32;5.38;;;1.98;;
53052;SDS011;38934;52.690;6.184;2023-04-25T10:15:59;4.10;;;2.05;;
53052;SDS011;38934;52.690;6.184;2023-04-25T10:18:28;6.93;;;1.98;;
53052;SDS011;38934;52.690;6.184;2023-04-25T10:20:55;8.18;;;1.60;;
53052;SDS011;38934;52.690;6.184;2023-04-25T10:23:23;8.05;;;1.80;;
53052;SDS011;38934;52.690;6.184;2023-04-25T10:25:52;6.25;;;2.10;;
53052;SDS011;38934;52.690;6.184;2023-04-25T10:28:21;6.28;;;1.90;;
53052;SDS011;38934;52.690;6.184;2023-04-25T10:30:56;5.22;;;1.60;;
53052;SDS011;38934;52.690;6.184;2023-04-25T10:33:33;6.15;;;1.80;;
53052;SDS011;38934;52.690;6.184;2023-04-25T10:36:13;5.63;;;1.73;;
53052;SDS011;38934;52.690;6.184;2023-04-25T10:38:44;7.82;;;2.05;;
53052;SDS011;38934;52.690;6.184;2023-04-25T10:41:11;8.60;;;2.03;;
53052;SDS011;38934;52.690;6.184;2023-04-25T10:43:39;5.97;;;1.90;;
53052;SDS011;38934;52.690;6.184;2023-04-25T10:48:50;5.60;;;1.80;;
53052;SDS011;38934;52.690;6.184;2023-04-25T10:51:25;5.47;;;1.67;;
53052;SDS011;38934;52.690;6.184;2023-04-25T10:53:56;8.02;;;1.83;;
53052;SDS011;38934;52.690;6.184;2023-04-25T10:56:40;6.53;;;2.10;;
53052;SDS011;38934;52.690;6.184;2023-04-25T11:01:53;9.02;;;2.60;;
53052;SDS011;38934;52.690;6.184;2023-04-25T11:04:21;6.30;;;2.33;;
53052;SDS011;38934;52.690;6.184;2023-04-25T11:09:32;6.45;;;2.20;;
53052;SDS011;38934;52.690;6.184;2023-04-25T11:11:59;7.30;;;2.30;;
53052;SDS011;38934;52.690;6.184;2023-04-25T11:14:26;8.23;;;1.60;;
53052;SDS011;38934;52.690;6.184;2023-04-25T11:16:53;7.63;;;2.20;;
53052;SDS011;38934;52.690;6.184;2023-04-25T11:19:20;7.63;;;1.80;;
53052;SDS011;38934;52.690;6.184;2023-04-25T11:21:47;7.35;;;2.15;;
53052;SDS011;38934;52.690;6.184;2023-04-25T11:24:12;4.05;;;1.80;;
53052;SDS011;38934;52.690;6.184;2023-04-25T11:26:38;6.43;;;1.90;;
53052;SDS011;38934;52.690;6.184;2023-04-25T11:29:07;7.32;;;1.77;;
53052;SDS011;38934;52.690;6.184;2023-04-25T11:31:33;6.30;;;1.75;;
53052;SDS011;38934;52.690;6.184;2023-04-25T11:33:59;6.50;;;1.70;;
53052;SDS011;38934;52.690;6.184;2023-04-25T11:36:25;8.25;;;2.10;;
53052;SDS011;38934;52.690;6.184;2023-04-25T11:38:52;6.85;;;1.60;;
53052;SDS011;38934;52.690;6.184;2023-04-25T11:41:18;5.40;;;2.03;;
53052;SDS011;38934;52.690;6.184;2023-04-25T11:43:45;6.25;;;2.38;;
53052;SDS011;38934;52.690;6.184;2023-04-25T11:46:11;9.13;;;2.15;;
53052;SDS011;38934;52.690;6.184;2023-04-25T11:48:40;10.13;;;2.40;;
53052;SDS011;38934;52.690;6.184;2023-04-25T11:51:06;7.50;;;2.38;;
53052;SDS011;38934;52.690;6.184;2023-04-25T11:53:32;6.68;;;2.08;;
53052;SDS011;38934;52.690;6.184;2023-04-25T11:55:59;8.18;;;2.60;;
53052;SDS011;38934;52.690;6.184;2023-04-25T11:58:25;5.72;;;2.63;;
53052;SDS011;38934;52.690;6.184;2023-04-25T12:00:52;9.93;;;2.22;;
53052;SDS011;38934;52.690;6.184;2023-04-25T12:03:19;5.90;;;1.90;;
53052;SDS011;38934;52.690;6.184;2023-04-25T12:05:45;4.45;;;1.52;;
53052;SDS011;38934;52.690;6.184;2023-04-25T12:08:18;3.47;;;1.50;;
53052;SDS011;38934;52.690;6.184;2023-04-25T12:10:45;6.30;;;1.88;;
53052;SDS011;38934;52.690;6.184;2023-04-25T12:13:44;3.33;;;1.60;;
53052;SDS011;38934;52.690;6.184;2023-04-25T12:16:03;5.35;;;1.70;;
53052;SDS011;38934;52.690;6.184;2023-04-25T12:18:31;4.80;;;1.90;;
53052;SDS011;38934;52.690;6.184;2023-04-25T12:21:03;5.15;;;2.13;;
53052;SDS011;38934;52.690;6.184;2023-04-25T12:23:29;4.63;;;2.30;;
53052;SDS011;38934;52.690;6.184;2023-04-25T12:25:55;6.30;;;2.90;;
53052;SDS011;38934;52.690;6.184;2023-04-25T12:28:21;8.70;;;2.30;;
53052;SDS011;38934;52.690;6.184;2023-04-25T12:31:05;3.80;;;1.85;;
53052;SDS011;38934;52.690;6.184;2023-04-25T12:33:32;4.45;;;1.85;;
53052;SDS011;38934;52.690;6.184;2023-04-25T12:36:02;4.90;;;1.50;;
53052;SDS011;38934;52.690;6.184;2023-04-25T12:38:35;5.75;;;2.05;;
53052;SDS011;38934;52.690;6.184;2023-04-25T12:41:05;7.72;;;2.05;;
53052;SDS011;38934;52.690;6.184;2023-04-25T12:43:31;4.95;;;1.90;;
53052;SDS011;38934;52.690;6.184;2023-04-25T12:45:57;11.02;;;2.00;;
53052;SDS011;38934;52.690;6.184;2023-04-25T12:48:26;4.25;;;1.80;;
53052;SDS011;38934;52.690;6.184;2023-04-25T12:50:52;7.65;;;2.30;;
53052;SDS011;38934;52.690;6.184;2023-04-25T12:53:18;8.48;;;2.40;;
53052;SDS011;38934;52.690;6.184;2023-04-25T12:55:46;8.48;;;2.60;;
53052;SDS011;38934;52.690;6.184;2023-04-25T12:58:12;7.55;;;2.80;;
53052;SDS011;38934;52.690;6.184;2023-04-25T13:00:44;6.43;;;2.63;;
53052;SDS011;38934;52.690;6.184;2023-04-25T13:03:13;7.05;;;2.30;;
53052;SDS011;38934;52.690;6.184;2023-04-25T13:05:39;6.22;;;2.30;;
53052;SDS011;38934;52.690;6.184;2023-04-25T13:08:07;5.60;;;2.30;;
53052;SDS011;38934;52.690;6.184;2023-04-25T13:10:32;8.20;;;2.40;;
53052;SDS011;38934;52.690;6.184;2023-04-25T13:12:58;5.15;;;1.92;;
53052;SDS011;38934;52.690;6.184;2023-04-25T13:15:24;6.18;;;1.98;;
53052;SDS011;38934;52.690;6.184;2023-04-25T13:17:50;5.90;;;1.80;;
53052;SDS011;38934;52.690;6.184;2023-04-25T13:20:16;4.88;;;1.52;;
53052;SDS011;38934;52.690;6.184;2023-04-25T13:22:43;4.68;;;1.58;;
53052;SDS011;38934;52.690;6.184;2023-04-25T13:25:10;6.07;;;1.83;;
53052;SDS011;38934;52.690;6.184;2023-04-25T13:27:36;5.85;;;1.67;;
53052;SDS011;38934;52.690;6.184;2023-04-25T13:30:07;7.32;;;1.95;;
53052;SDS011;38934;52.690;6.184;2023-04-25T13:32:34;6.10;;;2.40;;
53052;SDS011;38934;52.690;6.184;2023-04-25T13:35:03;6.93;;;2.10;;
53052;SDS011;38934;52.690;6.184;2023-04-25T13:37:29;8.65;;;2.70;;
53052;SDS011;38934;52.690;6.184;2023-04-25T13:39:59;5.80;;;1.90;;
53052;SDS011;38934;52.690;6.184;2023-04-25T13:42:25;9.25;;;2.55;;
53052;SDS011;38934;52.690;6.184;2023-04-25T13:44:51;9.13;;;2.35;;
53052;SDS011;38934;52.690;6.184;2023-04-25T13:47:17;6.80;;;2.35;;
53052;SDS011;38934;52.690;6.184;2023-04-25T13:49:42;5.68;;;2.20;;
53052;SDS011;38934;52.690;6.184;2023-04-25T13:52:08;6.47;;;1.90;;
53052;SDS011;38934;52.690;6.184;2023-04-25T13:54:33;5.40;;;1.90;;
53052;SDS011;38934;52.690;6.184;2023-04-25T13:56:59;7.10;;;2.05;;
53052;SDS011;38934;52.690;6.184;2023-04-25T13:59:26;5.15;;;1.80;;
53052;SDS011;38934;52.690;6.184;2023-04-25T14:01:52;5.22;;;2.30;;
53052;SDS011;38934;52.690;6.184;2023-04-25T14:04:18;4.75;;;1.88;;
53052;SDS011;38934;52.690;6.184;2023-04-25T14:06:43;4.18;;;1.65;;
53052;SDS011;38934;52.690;6.184;2023-04-25T14:09:09;5.38;;;2.22;;
53052;SDS011;38934;52.690;6.184;2023-04-25T14:11:38;6.20;;;2.15;;
53052;SDS011;38934;52.690;6.184;2023-04-25T14:14:04;4.57;;;1.95;;
53052;SDS011;38934;52.690;6.184;2023-04-25T14:16:30;3.58;;;1.95;;
53052;SDS011;38934;52.690;6.184;2023-04-25T14:18:59;4.50;;;1.83;;
53052;SDS011;38934;52.690;6.184;2023-04-25T14:21:25;6.38;;;1.80;;
53052;SDS011;38934;52.690;6.184;2023-04-25T14:23:54;3.05;;;1.63;;
53052;SDS011;38934;52.690;6.184;2023-04-25T14:26:20;3.55;;;1.40;;
53052;SDS011;38934;52.690;6.184;2023-04-25T14:28:45;2.83;;;1.60;;
53052;SDS011;38934;52.690;6.184;2023-04-25T14:31:11;3.22;;;1.55;;
53052;SDS011;38934;52.690;6.184;2023-04-25T14:33:37;3.97;;;1.70;;
53052;SDS011;38934;52.690;6.184;2023-04-25T14:36:10;4.82;;;1.80;;
53052;SDS011;38934;52.690;6.184;2023-04-25T14:38:36;6.63;;;1.92;;
53052;SDS011;38934;52.690;6.184;2023-04-25T14:41:03;3.22;;;1.60;;
53052;SDS011;38934;52.690;6.184;2023-04-25T14:43:29;4.97;;;1.90;;
53052;SDS011;38934;52.690;6.184;2023-04-25T14:45:54;6.93;;;2.03;;
53052;SDS011;38934;52.690;6.184;2023-04-25T14:48:20;6.07;;;2.15;;
53052;SDS011;38934;52.690;6.184;2023-04-25T14:50:46;8.43;;;2.75;;
53052;SDS011;38934;52.690;6.184;2023-04-25T14:53:11;11.63;;;2.85;;
53052;SDS011;38934;52.690;6.184;2023-04-25T14:55:38;11.20;;;3.22;;
53052;SDS011;38934;52.690;6.184;2023-04-25T14:58:03;9.38;;;3.00;;
53052;SDS011;38934;52.690;6.184;2023-04-25T15:00:29;6.32;;;2.38;;
53052;SDS011;38934;52.690;6.184;2023-04-25T15:02:56;6.93;;;2.10;;
53052;SDS011;38934;52.690;6.184;2023-04-25T15:05:22;4.70;;;1.90;;
53052;SDS011;38934;52.690;6.184;2023-04-25T15:07:48;7.90;;;2.13;;
53052;SDS011;38934;52.690;6.184;2023-04-25T15:10:14;7.07;;;2.10;;